Time;durP1;ratioP1;P1;durP2;ratioP2;P2;SDS_P1;SDS_P2;PMS_P1;PMS_P2;Temp;Humidity;BMP_temperature;BMP_pressure;BME280_temperature;BME280_humidity;BME280_pressure;Samples;Min_cycle;Max_cycle;Signal;HPM_P1;HPM_P2
2022/10/30 00:01:35;;;;;;;25.17;13.27;;;15.10;99.90;;;;;;5057743;28;20036;-59
2022/10/30 00:04:00;;;;;;;26.30;13.15;;;15.10;99.90;;;;;;5056778;28;20044;-59
2022/10/30 00:06:26;;;;;;;21.73;13.45;;;15.10;99.90;;;;;;5042776;28;20044;-56
2022/10/30 00:08:51;;;;;;;22.02;13.50;;;15.00;99.90;;;;;;5037173;28;20045;-60
2022/10/30 00:11:17;;;;;;;22.35;13.77;;;15.00;99.90;;;;;;5060412;28;20127;-59
2022/10/30 00:13:43;;;;;;;25.85;12.82;;;15.00;99.90;;;;;;5057449;28;20048;-59
2022/10/30 00:16:10;;;;;;;25.85;12.57;;;15.00;99.90;;;;;;5054799;28;20398;-59
2022/10/30 00:18:37;;;;;;;25.75;12.93;;;15.00;99.90;;;;;;5059215;28;20488;-56
2022/10/30 00:21:11;;;;;;;20.30;12.13;;;15.00;99.90;;;;;;5057265;28;20142;-58
2022/10/30 00:23:37;;;;;;;24.23;13.02;;;15.00;99.90;;;;;;5051778;28;20455;-60
2022/10/30 00:26:06;;;;;;;22.50;12.93;;;15.00;99.90;;;;;;5060435;28;20074;-60
2022/10/30 00:28:33;;;;;;;23.65;13.55;;;15.00;99.90;;;;;;5061223;28;20043;-59
2022/10/30 00:31:00;;;;;;;21.05;12.80;;;15.00;99.90;;;;;;5059197;28;20039;-59
2022/10/30 00:33:26;;;;;;;23.42;12.68;;;14.90;99.90;;;;;;5040605;28;20041;-60
2022/10/30 00:35:51;;;;;;;21.55;13.40;;;14.90;99.90;;;;;;5040616;28;20040;-59
2022/10/30 00:38:17;;;;;;;22.70;13.32;;;14.90;99.90;;;;;;5064181;28;20044;-59
2022/10/30 00:40:43;;;;;;;25.55;13.52;;;14.90;99.90;;;;;;5035213;28;20161;-60
2022/10/30 00:43:44;;;;;;;23.50;11.98;;;14.90;99.90;;;;;;5051438;28;20324;-59
2022/10/30 00:46:19;;;;;;;20.27;11.85;;;14.90;99.90;;;;;;5016631;28;20095;-60
2022/10/30 00:48:51;;;;;;;23.13;13.00;;;14.90;99.90;;;;;;5035424;28;20080;-59
2022/10/30 00:51:18;;;;;;;19.23;12.20;;;14.90;99.90;;;;;;5055168;28;20391;-59
2022/10/30 00:53:45;;;;;;;22.95;12.35;;;14.90;99.90;;;;;;5052916;28;20048;-59
2022/10/30 00:56:11;;;;;;;22.15;12.75;;;14.90;99.90;;;;;;5059094;28;20522;-60
2022/10/30 00:58:47;;;;;;;20.55;11.65;;;14.90;99.90;;;;;;5056885;28;20070;-58
2022/10/30 01:01:18;;;;;;;21.58;12.00;;;14.90;99.90;;;;;;5061407;28;20391;-60
2022/10/30 01:03:46;;;;;;;21.33;11.90;;;14.80;99.90;;;;;;5057058;28;20135;-58
2022/10/30 01:06:14;;;;;;;21.33;12.50;;;14.80;99.90;;;;;;5057440;28;20091;-58
2022/10/30 01:08:41;;;;;;;19.77;12.32;;;14.80;99.90;;;;;;5062420;28;20120;-58
2022/10/30 01:11:08;;;;;;;19.60;12.48;;;14.80;99.90;;;;;;5059479;28;20033;-58
2022/10/30 01:13:35;;;;;;;21.42;11.52;;;14.80;99.90;;;;;;5064389;28;20247;-60
2022/10/30 01:16:38;;;;;;;19.75;11.02;;;14.80;99.90;;;;;;5066052;28;20079;-59
2022/10/30 01:19:24;;;;;;;25.52;11.70;;;14.80;99.90;;;;;;5068448;28;20037;-59
2022/10/30 01:22:20;;;;;;;27.05;12.25;;;14.80;99.90;;;;;;5065590;28;20059;-59
2022/10/30 01:25:02;;;;;;;27.30;12.23;;;14.80;99.90;;;;;;5044108;28;20614;-59
2022/10/30 01:27:45;;;;;;;23.83;13.05;;;14.80;99.90;;;;;;5064136;28;20486;-57
2022/10/30 01:30:48;;;;;;;24.42;13.32;;;14.80;99.90;;;;;;5063319;28;20043;-58
2022/10/30 01:33:21;;;;;;;24.60;13.07;;;14.70;99.90;;;;;;5059554;28;20095;-59
2022/10/30 01:35:55;;;;;;;21.40;12.02;;;14.70;99.90;;;;;;5064949;28;20041;-58
2022/10/30 01:38:30;;;;;;;24.77;12.80;;;14.70;99.90;;;;;;5063245;28;20040;-59
2022/10/30 01:40:56;;;;;;;22.63;12.10;;;14.70;99.90;;;;;;5060777;28;20062;-59
2022/10/30 01:43:22;;;;;;;20.50;12.40;;;14.70;99.90;;;;;;5061708;28;20345;-60
2022/10/30 01:45:50;;;;;;;21.75;12.25;;;14.60;99.90;;;;;;5066807;28;20055;-59
2022/10/30 01:48:22;;;;;;;19.42;12.82;;;14.60;99.90;;;;;;5057422;28;20285;-59
2022/10/30 01:51:03;;;;;;;19.25;13.15;;;14.70;99.90;;;;;;5066970;28;20043;-60
2022/10/30 01:53:53;;;;;;;27.88;12.55;;;14.70;99.90;;;;;;5064488;28;21414;-58
2022/10/30 01:56:35;;;;;;;20.25;12.40;;;14.60;99.90;;;;;;5064013;28;20033;-59
2022/10/30 01:59:15;;;;;;;24.67;12.90;;;14.60;99.90;;;;;;5066686;28;20052;-60
2022/10/30 02:01:41;;;;;;;24.92;12.48;;;14.60;99.90;;;;;;5039287;28;20083;-59
2022/10/30 02:04:09;;;;;;;22.08;14.25;;;14.60;99.90;;;;;;5037537;28;20119;-59
2022/10/30 02:06:36;;;;;;;29.67;13.52;;;14.60;99.90;;;;;;5047007;28;20049;-59
2022/10/30 02:09:03;;;;;;;20.67;11.55;;;14.50;99.90;;;;;;5059844;28;20509;-59
2022/10/30 02:11:30;;;;;;;23.42;11.98;;;14.50;99.90;;;;;;5058860;28;20051;-59
2022/10/30 02:13:57;;;;;;;24.00;12.45;;;14.50;99.90;;;;;;5042983;28;20040;-59
2022/10/30 02:16:23;;;;;;;19.98;11.75;;;14.50;99.90;;;;;;5062099;28;20032;-60
2022/10/30 02:18:48;;;;;;;21.02;12.32;;;14.50;99.90;;;;;;5059046;28;20040;-59
2022/10/30 02:21:14;;;;;;;25.15;13.90;;;14.50;99.90;;;;;;5036914;28;20050;-60
2022/10/30 02:23:40;;;;;;;20.20;12.88;;;14.40;99.90;;;;;;5062036;28;20442;-60
2022/10/30 02:26:06;;;;;;;22.65;12.18;;;14.40;99.90;;;;;;5061559;28;20127;-60
2022/10/30 02:28:31;;;;;;;24.50;13.25;;;14.40;99.90;;;;;;5039146;28;20046;-58
2022/10/30 02:30:57;;;;;;;22.58;12.07;;;14.40;99.90;;;;;;5066509;28;20028;-59
2022/10/30 02:33:23;;;;;;;21.48;12.73;;;14.40;99.90;;;;;;5066023;28;20302;-60
2022/10/30 02:35:50;;;;;;;21.17;12.38;;;14.40;99.90;;;;;;5059767;28;20065;-59
2022/10/30 02:38:15;;;;;;;17.80;12.25;;;14.40;99.90;;;;;;5061063;28;20040;-59
2022/10/30 02:40:41;;;;;;;19.65;11.95;;;14.40;99.90;;;;;;5061337;28;20029;-59
2022/10/30 02:43:07;;;;;;;23.60;13.27;;;14.30;99.90;;;;;;5044176;28;20064;-60
2022/10/30 02:45:33;;;;;;;22.40;12.32;;;14.30;99.90;;;;;;5040437;28;20036;-60
2022/10/30 02:47:59;;;;;;;20.25;12.82;;;14.30;99.90;;;;;;5062873;28;20147;-59
2022/10/30 02:50:25;;;;;;;21.35;12.75;;;14.30;99.90;;;;;;5044144;28;20532;-60
2022/10/30 02:52:51;;;;;;;19.40;13.02;;;14.30;99.90;;;;;;5058656;28;20191;-60
2022/10/30 02:55:17;;;;;;;20.08;13.02;;;14.30;99.90;;;;;;5053489;28;20079;-59
2022/10/30 02:57:43;;;;;;;20.65;11.63;;;14.30;99.90;;;;;;5054474;28;20284;-59
2022/10/30 03:00:09;;;;;;;22.73;13.55;;;14.30;99.90;;;;;;5057961;28;20033;-60
2022/10/30 03:02:35;;;;;;;21.85;13.40;;;14.30;99.90;;;;;;5063556;28;20396;-60
2022/10/30 03:05:00;;;;;;;18.13;13.15;;;14.30;99.90;;;;;;5041228;28;20086;-59
2022/10/30 03:07:26;;;;;;;25.33;14.25;;;14.30;99.90;;;;;;5064908;28;20411;-60
2022/10/30 03:09:53;;;;;;;20.10;12.32;;;14.30;99.90;;;;;;5063095;28;20708;-59
2022/10/30 03:12:19;;;;;;;24.40;12.68;;;14.30;99.90;;;;;;5059434;28;20499;-59
2022/10/30 03:14:44;;;;;;;22.17;12.52;;;14.30;99.90;;;;;;5059483;28;20111;-59
2022/10/30 03:17:10;;;;;;;26.90;13.57;;;14.30;99.90;;;;;;5047311;28;20028;-59
2022/10/30 03:19:36;;;;;;;22.83;12.77;;;14.30;99.90;;;;;;5058720;28;20315;-59
2022/10/30 03:22:02;;;;;;;22.27;12.43;;;14.30;99.90;;;;;;5059008;28;20040;-60
2022/10/30 03:24:27;;;;;;;22.60;12.45;;;14.30;99.90;;;;;;5055226;28;20376;-59
2022/10/30 03:26:53;;;;;;;21.52;13.05;;;14.30;99.90;;;;;;5064037;28;20028;-59
2022/10/30 03:29:19;;;;;;;24.83;13.07;;;14.30;99.90;;;;;;5060354;28;20052;-60
2022/10/30 03:31:44;;;;;;;20.63;12.23;;;14.30;99.90;;;;;;5056208;28;20056;-60
2022/10/30 03:34:10;;;;;;;22.73;13.63;;;14.20;99.90;;;;;;5036688;28;20132;-59
2022/10/30 03:36:36;;;;;;;25.60;12.93;;;14.20;99.90;;;;;;5029384;28;20079;-60
2022/10/30 03:39:02;;;;;;;25.67;13.38;;;14.20;99.90;;;;;;5039539;28;20130;-58
2022/10/30 03:41:28;;;;;;;22.27;13.00;;;14.20;99.90;;;;;;5052223;28;20052;-59
2022/10/30 03:43:53;;;;;;;26.35;13.02;;;14.20;99.90;;;;;;5026341;28;20037;-60
2022/10/30 03:46:19;;;;;;;22.80;13.52;;;14.20;99.90;;;;;;5057026;28;20120;-60
2022/10/30 03:48:48;;;;;;;27.00;14.63;;;14.20;99.90;;;;;;5041657;28;20044;-58
2022/10/30 03:51:14;;;;;;;22.85;12.50;;;14.20;99.90;;;;;;5059264;28;20190;-58
2022/10/30 03:53:40;;;;;;;25.70;14.35;;;14.20;99.90;;;;;;5053970;28;20041;-59
2022/10/30 03:56:06;;;;;;;25.77;14.27;;;14.10;99.90;;;;;;5058785;28;20379;-60
2022/10/30 03:58:32;;;;;;;25.35;14.20;;;14.20;99.90;;;;;;5021419;28;20488;-59
2022/10/30 04:01:05;;;;;;;26.38;15.00;;;14.10;99.90;;;;;;5049460;28;20047;-59
2022/10/30 04:03:31;;;;;;;26.17;13.40;;;14.10;99.90;;;;;;5054190;28;20119;-59
2022/10/30 04:05:57;;;;;;;20.48;12.93;;;14.10;99.90;;;;;;5056650;28;20033;-58
2022/10/30 04:08:23;;;;;;;20.88;12.98;;;14.10;99.90;;;;;;5059488;28;20401;-60
2022/10/30 04:10:49;;;;;;;23.48;13.35;;;14.10;99.90;;;;;;5054371;28;20119;-58
2022/10/30 04:13:16;;;;;;;19.30;11.68;;;14.10;99.90;;;;;;5053165;28;20475;-58
2022/10/30 04:15:42;;;;;;;24.65;13.77;;;14.10;99.90;;;;;;5061873;28;20394;-58
2022/10/30 04:18:11;;;;;;;27.52;13.32;;;14.10;99.90;;;;;;5035324;28;20040;-59
2022/10/30 04:20:37;;;;;;;21.58;13.63;;;14.10;99.90;;;;;;5047937;28;20052;-58
2022/10/30 04:23:05;;;;;;;23.50;13.32;;;14.10;99.90;;;;;;5065163;28;20398;-58
2022/10/30 04:25:32;;;;;;;19.88;13.98;;;14.00;99.90;;;;;;5065714;28;20410;-60
2022/10/30 04:27:58;;;;;;;25.17;13.45;;;14.00;99.90;;;;;;5047494;28;20058;-58
2022/10/30 04:30:26;;;;;;;26.38;13.45;;;14.00;99.90;;;;;;5060455;22;20563;-59
2022/10/30 04:32:55;;;;;;;19.80;11.82;;;14.00;99.90;;;;;;5042607;28;20411;-60
2022/10/30 04:35:24;;;;;;;22.70;12.50;;;14.00;99.90;;;;;;5045573;28;20502;-59
2022/10/30 04:37:57;;;;;;;23.67;12.30;;;14.00;99.90;;;;;;5044193;28;20105;-56
2022/10/30 04:40:25;;;;;;;20.45;13.07;;;14.00;99.90;;;;;;5032330;28;20369;-59
2022/10/30 04:42:51;;;;;;;19.40;13.38;;;14.00;99.90;;;;;;5049890;28;20116;-57
2022/10/30 04:45:17;;;;;;;20.38;12.68;;;13.90;99.90;;;;;;5012319;28;20120;-59
2022/10/30 04:47:44;;;;;;;29.30;14.55;;;13.90;99.90;;;;;;5030764;28;20532;-59
2022/10/30 04:50:10;;;;;;;25.52;13.48;;;13.90;99.90;;;;;;5031693;28;20095;-59
2022/10/30 04:52:37;;;;;;;26.83;14.57;;;13.90;99.90;;;;;;5050507;28;20091;-57
2022/10/30 04:55:03;;;;;;;19.42;12.60;;;13.80;99.90;;;;;;5049766;28;20120;-59
2022/10/30 04:57:30;;;;;;;23.75;14.13;;;13.80;99.90;;;;;;5049345;28;20037;-57
2022/10/30 04:59:57;;;;;;;28.83;15.43;;;13.80;99.90;;;;;;5026902;28;20492;-57
2022/10/30 05:02:23;;;;;;;20.83;13.77;;;13.80;99.90;;;;;;5012299;28;20056;-56
2022/10/30 05:04:48;;;;;;;22.27;13.32;;;13.70;99.90;;;;;;5005816;28;20048;-56
2022/10/30 05:07:16;;;;;;;27.80;15.90;;;13.70;99.90;;;;;;5052139;28;20499;-59
2022/10/30 05:09:41;;;;;;;23.98;14.20;;;13.70;99.90;;;;;;5049887;28;20087;-58
2022/10/30 05:12:08;;;;;;;25.85;13.18;;;13.60;99.90;;;;;;5036859;28;20423;-57
2022/10/30 05:14:34;;;;;;;24.55;13.77;;;13.60;99.90;;;;;;5040816;28;20030;-59
2022/10/30 05:17:00;;;;;;;26.20;13.30;;;13.60;99.90;;;;;;5049880;28;20280;-57
2022/10/30 05:19:25;;;;;;;24.40;14.63;;;13.50;99.90;;;;;;5052350;28;20025;-54
2022/10/30 05:21:51;;;;;;;21.30;12.45;;;13.50;99.90;;;;;;5043226;28;20471;-59
2022/10/30 05:24:17;;;;;;;23.40;14.65;;;13.50;99.90;;;;;;5052281;28;20048;-57
2022/10/30 05:26:43;;;;;;;23.08;13.75;;;13.50;99.90;;;;;;5037397;28;20049;-60
2022/10/30 05:29:09;;;;;;;22.15;13.18;;;13.40;99.90;;;;;;5027165;28;20045;-60
2022/10/30 05:31:35;;;;;;;21.90;15.13;;;13.40;99.90;;;;;;5051609;28;20156;-57
2022/10/30 05:34:00;;;;;;;22.58;13.68;;;13.40;99.90;;;;;;5016334;28;20045;-55
2022/10/30 05:36:26;;;;;;;31.80;15.88;;;13.40;99.90;;;;;;5026973;28;20037;-59
2022/10/30 05:38:52;;;;;;;19.10;12.90;;;13.40;99.90;;;;;;5042334;28;20046;-59
2022/10/30 05:41:18;;;;;;;26.80;16.92;;;13.30;99.90;;;;;;5047231;28;20044;-58
2022/10/30 05:43:43;;;;;;;26.00;16.40;;;13.40;99.90;;;;;;5051568;28;20044;-57
2022/10/30 05:46:09;;;;;;;23.65;14.05;;;13.30;99.90;;;;;;5044683;28;20041;-59
2022/10/30 05:48:35;;;;;;;23.10;14.65;;;13.30;99.90;;;;;;5039181;28;20403;-59
2022/10/30 05:51:01;;;;;;;28.85;15.85;;;13.30;99.90;;;;;;5048888;28;20182;-59
2022/10/30 05:53:27;;;;;;;31.02;17.42;;;13.30;99.90;;;;;;5048385;28;20033;-58
2022/10/30 05:55:56;;;;;;;26.52;15.68;;;13.30;99.90;;;;;;5018493;28;20036;-58
2022/10/30 05:58:22;;;;;;;29.17;16.25;;;13.30;99.90;;;;;;5043454;28;20099;-56
2022/10/30 06:00:48;;;;;;;27.00;15.93;;;13.30;99.90;;;;;;5033086;28;20041;-56
2022/10/30 06:03:14;;;;;;;24.10;14.90;;;13.30;99.90;;;;;;5030352;28;20124;-56
2022/10/30 06:05:40;;;;;;;24.38;14.35;;;13.30;99.90;;;;;;5033507;28;20132;-58
2022/10/30 06:08:06;;;;;;;22.92;15.75;;;13.20;99.90;;;;;;5048975;28;20041;-59
2022/10/30 06:10:33;;;;;;;28.85;15.57;;;13.20;99.90;;;;;;5047170;28;20120;-57
2022/10/30 06:13:01;;;;;;;27.35;16.30;;;13.20;99.90;;;;;;5029682;28;20076;-59
2022/10/30 06:15:28;;;;;;;28.80;17.50;;;13.10;99.90;;;;;;5042874;28;20454;-57
2022/10/30 06:17:54;;;;;;;22.00;14.88;;;13.20;99.90;;;;;;5029606;28;20079;-56
2022/10/30 06:20:21;;;;;;;26.27;16.33;;;13.20;99.90;;;;;;5032314;28;20048;-56
2022/10/30 06:22:56;;;;;;;28.40;17.98;;;13.10;99.90;;;;;;5050679;28;20048;-58
2022/10/30 06:25:22;;;;;;;25.83;15.90;;;13.20;99.90;;;;;;5047276;28;20095;-57
2022/10/30 06:27:49;;;;;;;27.05;17.05;;;13.10;99.90;;;;;;5028420;28;20041;-59
2022/10/30 06:30:15;;;;;;;29.80;17.80;;;13.10;99.90;;;;;;5045075;28;20080;-60
2022/10/30 06:32:40;;;;;;;26.73;16.13;;;13.10;99.90;;;;;;5045143;28;20037;-56
2022/10/30 06:35:07;;;;;;;26.10;15.82;;;13.10;99.90;;;;;;5050700;28;20039;-57
2022/10/30 06:37:33;;;;;;;28.42;17.10;;;13.10;99.90;;;;;;5049228;28;20413;-60
2022/10/30 06:39:59;;;;;;;28.05;16.80;;;13.10;99.90;;;;;;5047142;28;20083;-57
2022/10/30 06:42:25;;;;;;;28.65;16.50;;;13.10;99.90;;;;;;5050662;28;20038;-59
2022/10/30 06:44:50;;;;;;;29.52;18.30;;;13.10;99.90;;;;;;5046326;28;20108;-58
2022/10/30 06:47:16;;;;;;;27.48;16.67;;;13.10;99.90;;;;;;5046683;28;20030;-59
2022/10/30 06:49:42;;;;;;;26.80;14.80;;;13.10;99.90;;;;;;5048557;28;20121;-57
2022/10/30 06:52:08;;;;;;;28.23;15.15;;;13.10;99.90;;;;;;5025784;28;20032;-58
2022/10/30 06:54:34;;;;;;;28.80;16.65;;;13.10;99.90;;;;;;5011365;28;20466;-57
2022/10/30 06:57:00;;;;;;;28.77;15.80;;;13.10;99.90;;;;;;5045796;28;20388;-59
2022/10/30 06:59:26;;;;;;;26.98;15.95;;;13.10;99.90;;;;;;5034799;28;20029;-59
2022/10/30 07:01:52;;;;;;;25.65;16.50;;;13.20;99.90;;;;;;5046489;28;20049;-57
2022/10/30 07:04:18;;;;;;;30.92;17.45;;;13.10;99.90;;;;;;5047568;28;20029;-58
2022/10/30 07:06:43;;;;;;;32.17;17.05;;;13.20;99.90;;;;;;5029056;28;20481;-60
2022/10/30 07:09:09;;;;;;;25.65;17.55;;;13.20;99.90;;;;;;5046520;28;20033;-57
2022/10/30 07:11:35;;;;;;;27.13;15.85;;;13.20;99.90;;;;;;5006066;28;20036;-58
2022/10/30 07:14:01;;;;;;;27.70;17.50;;;13.10;99.90;;;;;;5011322;28;20034;-57
2022/10/30 07:16:27;;;;;;;31.23;17.02;;;13.20;99.90;;;;;;5000251;28;20037;-57
2022/10/30 07:18:55;;;;;;;23.23;14.95;;;13.20;99.90;;;;;;5022412;28;20487;-57
2022/10/30 07:21:20;;;;;;;26.48;16.50;;;13.20;99.90;;;;;;5048951;28;20041;-60
2022/10/30 07:23:46;;;;;;;28.02;16.73;;;13.20;99.90;;;;;;5040554;28;20162;-59
2022/10/30 07:26:12;;;;;;;28.77;17.25;;;13.20;99.90;;;;;;5044510;28;20037;-54
2022/10/30 07:28:37;;;;;;;21.95;16.13;;;13.20;99.90;;;;;;5023847;28;20052;-57
2022/10/30 07:31:03;;;;;;;28.48;15.85;;;13.20;99.90;;;;;;5046055;28;20502;-56
2022/10/30 07:33:29;;;;;;;28.65;15.57;;;13.20;99.90;;;;;;5045467;28;20044;-59
2022/10/30 07:35:55;;;;;;;23.48;15.25;;;13.30;99.90;;;;;;5045624;28;20094;-60
2022/10/30 07:38:20;;;;;;;27.15;16.63;;;13.30;99.90;;;;;;5028639;28;20079;-60
2022/10/30 07:40:52;;;;;;;29.85;17.25;;;13.40;99.90;;;;;;5028567;28;20427;-60
2022/10/30 07:43:18;;;;;;;24.67;16.25;;;13.40;99.90;;;;;;5029260;28;20044;-60
2022/10/30 07:45:44;;;;;;;28.15;17.92;;;13.50;99.90;;;;;;5048897;28;20045;-57
2022/10/30 07:48:10;;;;;;;30.23;16.83;;;13.60;99.90;;;;;;5050638;28;20498;-59
2022/10/30 07:50:36;;;;;;;25.98;16.45;;;13.60;99.90;;;;;;5050143;28;20056;-59
2022/10/30 07:53:02;;;;;;;26.63;17.52;;;13.70;99.90;;;;;;5030421;28;20053;-59
2022/10/30 07:55:27;;;;;;;28.50;18.55;;;13.80;99.90;;;;;;5048067;28;20037;-59
2022/10/30 07:57:53;;;;;;;27.13;17.48;;;13.80;99.90;;;;;;5025618;28;20087;-57
2022/10/30 08:00:19;;;;;;;30.25;16.80;;;13.90;99.90;;;;;;5043807;28;20108;-60
2022/10/30 08:02:49;;;;;;;30.42;16.90;;;13.90;99.90;;;;;;5042824;28;20738;-60
2022/10/30 08:05:14;;;;;;;25.13;15.82;;;14.00;99.90;;;;;;4994399;28;20047;-59
2022/10/30 08:07:40;;;;;;;26.55;16.23;;;14.00;99.90;;;;;;5022732;28;20445;-58
2022/10/30 08:10:07;;;;;;;31.83;17.90;;;14.10;99.90;;;;;;5040792;28;20068;-57
2022/10/30 08:12:33;;;;;;;26.90;17.08;;;14.10;99.90;;;;;;5044898;28;20119;-54
2022/10/30 08:14:59;;;;;;;23.13;16.90;;;14.10;99.90;;;;;;5044972;28;20044;-59
2022/10/30 08:17:25;;;;;;;26.98;16.67;;;14.20;99.90;;;;;;5043885;28;20037;-58
2022/10/30 08:19:51;;;;;;;30.75;17.48;;;14.30;99.90;;;;;;5044599;28;22322;-58
2022/10/30 08:22:17;;;;;;;26.92;16.45;;;14.30;99.90;;;;;;5041123;28;20041;-59
2022/10/30 08:24:43;;;;;;;24.77;15.95;;;14.40;99.90;;;;;;5047884;28;20423;-60
2022/10/30 08:27:09;;;;;;;30.65;16.17;;;14.40;99.90;;;;;;5031645;28;20134;-59
2022/10/30 08:29:35;;;;;;;26.17;17.00;;;14.50;99.90;;;;;;5045376;28;20625;-58
2022/10/30 08:32:01;;;;;;;30.10;17.20;;;14.50;99.90;;;;;;5025839;28;20116;-59
2022/10/30 08:34:26;;;;;;;23.17;16.35;;;14.60;99.90;;;;;;5025779;28;20070;-58
2022/10/30 08:36:52;;;;;;;26.30;15.57;;;14.70;99.90;;;;;;5040509;28;20362;-57
2022/10/30 08:39:19;;;;;;;24.35;16.23;;;14.70;99.90;;;;;;5028561;28;20598;-59
2022/10/30 08:41:45;;;;;;;25.95;16.42;;;14.80;99.90;;;;;;5029511;28;20410;-59
2022/10/30 08:44:10;;;;;;;31.27;17.13;;;14.90;99.90;;;;;;5029246;28;20514;-58
2022/10/30 08:46:37;;;;;;;28.23;16.45;;;14.90;99.90;;;;;;5028917;28;20049;-59
2022/10/30 08:49:03;;;;;;;26.70;15.95;;;15.00;99.90;;;;;;5025923;28;20141;-58
2022/10/30 08:51:33;;;;;;;28.23;16.23;;;15.10;99.90;;;;;;5010985;28;20470;-59
2022/10/30 08:54:00;;;;;;;26.05;14.88;;;15.20;99.90;;;;;;5038902;28;20053;-57
2022/10/30 08:56:26;;;;;;;27.83;15.13;;;15.30;99.90;;;;;;5042904;28;20044;-58
2022/10/30 08:58:52;;;;;;;29.73;16.85;;;15.30;99.90;;;;;;5025250;28;20130;-57
2022/10/30 09:01:18;;;;;;;26.60;16.15;;;15.40;99.90;;;;;;5046881;28;20060;-58
2022/10/30 09:03:44;;;;;;;22.52;15.95;;;15.50;99.90;;;;;;5046818;28;20048;-59
2022/10/30 09:06:11;;;;;;;25.25;16.25;;;15.60;99.90;;;;;;5044382;28;20522;-59
2022/10/30 09:08:37;;;;;;;27.40;15.90;;;15.70;99.90;;;;;;5047552;28;20348;-57
2022/10/30 09:11:02;;;;;;;29.35;16.27;;;15.80;99.90;;;;;;5042970;28;20175;-60
2022/10/30 09:13:29;;;;;;;26.92;16.23;;;15.90;99.90;;;;;;5027826;28;20075;-57
2022/10/30 09:16:01;;;;;;;26.35;15.38;;;16.00;99.90;;;;;;5044645;28;20040;-57
2022/10/30 09:18:27;;;;;;;22.83;14.90;;;16.10;99.90;;;;;;5042544;28;20041;-59
2022/10/30 09:20:53;;;;;;;24.50;14.13;;;16.20;99.90;;;;;;5021485;28;20403;-59
2022/10/30 09:23:19;;;;;;;23.92;14.38;;;16.30;99.90;;;;;;5043187;28;20033;-60
2022/10/30 09:25:44;;;;;;;26.20;14.13;;;16.40;99.90;;;;;;5039022;28;20483;-60
2022/10/30 09:28:10;;;;;;;32.70;16.10;;;16.50;99.90;;;;;;5042235;28;20098;-59
2022/10/30 09:30:36;;;;;;;27.92;15.50;;;16.60;99.90;;;;;;5030661;28;20045;-57
2022/10/30 09:33:01;;;;;;;23.30;14.40;;;16.70;99.90;;;;;;5023568;28;20049;-60
2022/10/30 09:35:28;;;;;;;24.13;14.60;;;16.80;99.90;;;;;;5044923;28;20064;-58
2022/10/30 09:37:55;;;;;;;21.30;14.27;;;16.90;99.90;;;;;;5045458;28;20033;-60
2022/10/30 09:40:48;;;;;;;23.30;14.63;;;17.00;99.90;;;;;;5046077;28;20043;-59
2022/10/30 09:43:42;;;;;;;21.73;13.20;;;17.20;99.90;;;;;;5044895;28;20190;-59
2022/10/30 09:46:35;;;;;;;22.92;13.70;;;17.30;99.90;;;;;;5029731;28;20120;-59
2022/10/30 09:49:12;;;;;;;19.30;13.13;;;17.40;99.90;;;;;;5045951;28;20033;-58
2022/10/30 09:52:05;;;;;;;20.02;13.00;;;17.60;99.90;;;;;;5032503;28;20047;-58
2022/10/30 09:54:52;;;;;;;24.27;13.52;;;17.70;99.90;;;;;;5036841;28;20053;-59
2022/10/30 09:57:46;;;;;;;31.05;14.65;;;17.80;99.90;;;;;;5035733;28;20037;-57
2022/10/30 10:00:16;;;;;;;30.80;14.05;;;18.00;99.90;;;;;;5038115;28;20187;-57
2022/10/30 10:03:03;;;;;;;25.00;14.00;;;18.10;99.90;;;;;;5013446;28;20309;-59
2022/10/30 10:05:39;;;;;;;22.60;12.68;;;18.20;99.90;;;;;;5036522;28;20040;-59
2022/10/30 10:08:12;;;;;;;25.13;13.23;;;18.40;99.90;;;;;;5032356;28;20368;-59
2022/10/30 10:10:43;;;;;;;23.65;12.57;;;18.50;99.90;;;;;;5038557;28;20076;-57
2022/10/30 10:13:37;;;;;;;28.10;13.88;;;18.60;99.90;;;;;;5042002;28;20415;-59
2022/10/30 10:16:19;;;;;;;25.33;12.98;;;18.70;99.90;;;;;;5036026;28;20373;-59
2022/10/30 10:18:47;;;;;;;22.60;11.77;;;18.70;99.90;;;;;;5035236;28;21095;-58
2022/10/30 10:21:22;;;;;;;22.75;12.13;;;18.90;99.90;;;;;;5039043;28;20067;-59
2022/10/30 10:23:50;;;;;;;23.73;13.27;;;19.00;99.90;;;;;;5023827;28;20107;-58
2022/10/30 10:26:29;;;;;;;20.33;12.48;;;19.10;99.90;;;;;;5044718;28;20037;-59
2022/10/30 10:28:57;;;;;;;20.05;11.93;;;19.20;99.90;;;;;;5006573;28;22241;-59
2022/10/30 10:31:40;;;;;;;20.52;11.30;;;19.20;99.90;;;;;;5034112;23;20042;-59
2022/10/30 10:34:30;;;;;;;20.42;11.40;;;19.30;99.90;;;;;;5058916;28;20033;-60
2022/10/30 10:37:31;;;;;;;21.50;12.02;;;19.30;99.90;;;;;;5063353;28;20068;-58
2022/10/30 10:40:27;;;;;;;20.80;11.65;;;19.40;99.90;;;;;;5027846;28;20411;-59
2022/10/30 10:43:06;;;;;;;16.85;11.43;;;19.40;99.90;;;;;;5057763;28;20177;-59
2022/10/30 10:45:47;;;;;;;22.52;12.07;;;19.40;99.90;;;;;;5039519;28;20037;-60
2022/10/30 10:48:38;;;;;;;18.80;11.68;;;19.30;99.90;;;;;;5042150;28;20418;-59
2022/10/30 10:51:36;;;;;;;16.98;11.18;;;19.30;99.90;;;;;;5060396;28;20045;-59
2022/10/30 10:54:13;;;;;;;21.42;12.10;;;19.30;99.90;;;;;;5066384;28;20051;-59
2022/10/30 10:56:43;;;;;;;22.13;11.13;;;19.40;99.90;;;;;;5037095;28;20045;-58
2022/10/30 10:59:17;;;;;;;16.48;10.70;;;19.40;99.90;;;;;;5058926;28;20040;-59
2022/10/30 11:01:55;;;;;;;19.45;10.98;;;19.40;99.90;;;;;;5042640;28;20045;-59
2022/10/30 11:04:44;;;;;;;21.45;12.15;;;19.40;99.90;;;;;;5057609;28;20045;-59
2022/10/30 11:07:20;;;;;;;25.35;12.27;;;19.40;99.90;;;;;;5038871;28;20041;-60
2022/10/30 11:09:51;;;;;;;18.40;10.40;;;19.40;99.90;;;;;;5056884;28;20196;-60
2022/10/30 11:12:29;;;;;;;22.30;11.88;;;19.50;99.90;;;;;;5028632;28;20051;-60
2022/10/30 11:14:58;;;;;;;21.88;12.73;;;19.50;99.90;;;;;;5040060;28;20475;-60
2022/10/30 11:17:57;;;;;;;18.75;12.38;;;19.60;99.90;;;;;;5043706;28;20489;-59
2022/10/30 11:20:36;;;;;;;22.02;13.13;;;19.60;99.90;;;;;;5060125;28;20043;-59
2022/10/30 11:23:02;;;;;;;21.73;12.38;;;19.70;99.90;;;;;;5040010;28;20058;-60
2022/10/30 11:25:37;;;;;;;18.85;12.27;;;19.80;99.90;;;;;;5040728;28;20112;-59
2022/10/30 11:28:04;;;;;;;21.20;12.75;;;19.90;99.90;;;;;;5030676;28;20051;-60
2022/10/30 11:30:30;;;;;;;21.33;11.52;;;20.00;99.90;;;;;;5058154;28;20047;-58
2022/10/30 11:32:58;;;;;;;20.88;11.98;;;20.10;99.90;;;;;;5049405;28;20048;-59
2022/10/30 11:35:24;;;;;;;23.95;11.10;;;20.20;99.90;;;;;;5046527;28;20441;-61
2022/10/30 11:38:10;;;;;;;16.58;11.55;;;20.30;99.90;;;;;;5036848;28;20411;-61
2022/10/30 11:40:35;;;;;;;19.25;11.52;;;20.30;99.90;;;;;;5057650;28;20460;-62
2022/10/30 11:43:03;;;;;;;17.75;12.07;;;20.40;99.90;;;;;;5053997;28;20123;-60
2022/10/30 11:45:35;;;;;;;18.65;11.40;;;20.40;99.90;;;;;;5038789;28;20124;-61
2022/10/30 11:48:01;;;;;;;18.30;13.32;;;20.40;99.90;;;;;;5058307;28;20041;-62
2022/10/30 11:50:30;;;;;;;20.80;11.25;;;20.40;99.90;;;;;;5063600;28;20112;-61
2022/10/30 11:53:11;;;;;;;22.85;10.30;;;20.40;99.90;;;;;;5024036;28;20119;-61
2022/10/30 11:55:45;;;;;;;17.95;11.27;;;20.50;99.90;;;;;;5062519;28;20384;-60
2022/10/30 11:58:23;;;;;;;17.02;11.38;;;20.50;99.90;;;;;;5061791;28;20079;-61
2022/10/30 12:01:07;;;;;;;18.42;11.15;;;20.40;99.90;;;;;;5039836;28;20578;-61
2022/10/30 12:03:39;;;;;;;18.98;11.32;;;20.40;99.90;;;;;;5043816;28;20036;-60
2022/10/30 12:06:19;;;;;;;17.27;10.77;;;20.50;99.90;;;;;;5055997;28;20048;-61
2022/10/30 12:09:10;;;;;;;23.88;11.35;;;20.50;99.90;;;;;;5037752;28;20097;-61
2022/10/30 12:11:38;;;;;;;16.20;9.77;;;20.60;99.90;;;;;;5052290;28;20143;-59
2022/10/30 12:14:04;;;;;;;16.50;9.80;;;20.70;99.90;;;;;;5056672;28;20159;-60
2022/10/30 12:16:32;;;;;;;21.70;10.38;;;20.80;99.90;;;;;;5053108;28;20089;-60
2022/10/30 12:19:08;;;;;;;15.15;9.27;;;20.80;99.90;;;;;;5046737;28;20369;-59
2022/10/30 12:21:39;;;;;;;17.20;10.40;;;20.90;99.90;;;;;;5052521;28;20044;-59
2022/10/30 12:24:12;;;;;;;16.27;9.63;;;20.90;99.90;;;;;;5055684;28;20040;-59
2022/10/30 12:26:39;;;;;;;17.75;9.80;;;20.90;99.90;;;;;;5054861;28;20052;-60
2022/10/30 12:29:12;;;;;;;15.73;9.32;;;20.90;99.90;;;;;;5038952;28;20496;-60
2022/10/30 12:31:53;;;;;;;19.75;9.85;;;20.90;99.90;;;;;;5059192;28;20099;-60
2022/10/30 12:34:48;;;;;;;16.88;9.40;;;20.90;99.90;;;;;;5059206;28;20070;-59
2022/10/30 12:37:20;;;;;;;18.98;8.88;;;20.80;99.90;;;;;;5052278;28;20082;-59
2022/10/30 12:40:00;;;;;;;19.15;8.50;;;20.80;99.90;;;;;;5041593;28;23159;-60
2022/10/30 12:42:27;;;;;;;16.05;8.10;;;20.70;99.90;;;;;;5054773;28;20068;-59